createdAt,value
2022-09-13T00:04:28.228Z,9.90
2022-09-13T00:10:37.704Z,10.00
2022-09-13T00:15:51.836Z,9.40
2022-09-13T00:22:06.469Z,10.30
2022-09-13T00:27:35.603Z,11.40
2022-09-13T00:33:07.997Z,11.70
2022-09-13T00:39:00.577Z,12.50
2022-09-13T00:45:10.774Z,9.80
2022-09-13T00:51:22.211Z,11.30
2022-09-13T00:57:54.023Z,11.40
2022-09-13T01:03:17.903Z,10.40
2022-09-13T01:09:32.729Z,11.80
2022-09-13T01:14:48.409Z,11.70
2022-09-13T01:20:16.035Z,12.40
2022-09-13T01:26:08.988Z,12.20
2022-09-13T01:32:43.450Z,13.40
2022-09-13T01:38:49.607Z,13.70
2022-09-13T01:45:29.711Z,12.80
2022-09-13T01:51:52.650Z,13.20
2022-09-13T01:57:47.064Z,12.60
2022-09-13T02:03:51.084Z,13.40
2022-09-13T02:09:01.834Z,11.60
2022-09-13T02:14:55.743Z,11.30
2022-09-13T02:20:30.257Z,12.70
2022-09-13T02:26:34.909Z,13.80
2022-09-13T02:33:29.959Z,13.40
2022-09-13T02:39:28.144Z,13.50
2022-09-13T02:44:56.006Z,13.30
2022-09-13T02:51:40.340Z,13.60
2022-09-13T02:57:55.812Z,14.40
2022-09-13T03:04:04.845Z,13.80
2022-09-13T03:09:13.391Z,16.20
2022-09-13T03:16:08.315Z,14.00
2022-09-13T03:23:13.884Z,13.80
2022-09-13T03:29:51.618Z,11.70
2022-09-13T03:36:01.989Z,12.40
2022-09-13T03:41:51.707Z,12.60
2022-09-13T03:47:04.296Z,13.10
2022-09-13T03:52:30.193Z,13.40
2022-09-13T03:58:53.262Z,13.30
2022-09-13T04:05:23.931Z,13.60
2022-09-13T04:10:38.988Z,13.30
2022-09-13T04:16:07.557Z,13.80
2022-09-13T04:22:41.587Z,15.20
2022-09-13T04:28:07.120Z,15.20
2022-09-13T04:33:38.847Z,15.40
2022-09-13T04:39:23.937Z,14.30
2022-09-13T04:45:12.027Z,13.20
2022-09-13T04:50:17.002Z,14.90
2022-09-13T04:56:24.268Z,15.20
2022-09-13T05:03:00.614Z,15.50
2022-09-13T05:09:03.280Z,14.90
2022-09-13T05:14:37.718Z,13.10
2022-09-13T05:20:26.429Z,16.20
2022-09-13T05:26:55.833Z,12.70
2022-09-13T05:33:23.249Z,12.20
2022-09-13T05:40:10.286Z,10.60
2022-09-13T05:46:23.776Z,12.60
2022-09-13T05:52:36.273Z,12.20
2022-09-13T05:58:41.243Z,12.60
2022-09-13T06:03:57.915Z,13.70
2022-09-13T06:09:20.158Z,11.50
2022-09-13T06:14:32.151Z,12.50
2022-09-13T06:19:44.682Z,13.70
2022-09-13T06:25:13.082Z,12.10
2022-09-13T06:30:19.879Z,12.40
2022-09-13T06:35:22.091Z,12.90
2022-09-13T06:40:27.318Z,14.20
2022-09-13T06:46:35.525Z,13.80
2022-09-13T06:52:16.068Z,13.00
2022-09-13T06:58:16.247Z,10.80
2022-09-13T07:03:37.472Z,10.70
2022-09-13T07:09:32.284Z,8.40
2022-09-13T07:14:57.466Z,8.80
2022-09-13T07:21:01.757Z,8.20
2022-09-13T07:26:45.073Z,9.30
2022-09-13T07:32:34.961Z,9.20
2022-09-13T07:38:30.354Z,7.80
2022-09-13T07:44:17.840Z,8.20
2022-09-13T07:50:03.452Z,6.90
2022-09-13T07:55:25.023Z,6.00
2022-09-13T08:00:29.978Z,4.90
2022-09-13T08:05:32.736Z,5.10
2022-09-13T08:10:38.140Z,5.10
2022-09-13T08:15:43.009Z,4.20
2022-09-13T08:21:01.358Z,4.30
2022-09-13T08:26:25.390Z,3.70
2022-09-13T08:31:41.455Z,3.60
2022-09-13T08:36:52.299Z,3.20
2022-09-13T08:43:17.568Z,3.20
2022-09-13T08:48:58.093Z,3.60
2022-09-13T08:54:11.948Z,3.40
2022-09-13T08:59:41.020Z,3.70
2022-09-13T09:05:13.002Z,3.80
2022-09-13T09:10:33.723Z,3.80
2022-09-13T09:16:07.451Z,3.90
2022-09-13T09:21:28.680Z,3.40
2022-09-13T09:26:54.233Z,3.70
2022-09-13T09:32:48.559Z,3.10
2022-09-13T09:38:46.920Z,2.70
2022-09-13T09:44:21.343Z,2.50
2022-09-13T09:50:14.469Z,2.70
2022-09-13T09:56:15.347Z,2.90
2022-09-13T10:02:02.029Z,3.10
2022-09-13T10:08:25.320Z,3.20
2022-09-13T10:15:00.200Z,3.00
2022-09-13T10:20:17.653Z,2.80
2022-09-13T10:25:50.830Z,2.80
2022-09-13T10:31:17.519Z,3.00
2022-09-13T10:37:26.281Z,3.30
2022-09-13T10:43:07.102Z,3.40
2022-09-13T10:49:09.374Z,3.20
2022-09-13T10:54:59.381Z,2.70
2022-09-13T11:00:17.595Z,3.00
2022-09-13T11:06:24.549Z,3.30
2022-09-13T11:11:45.765Z,3.50
2022-09-13T11:17:37.741Z,3.40
2022-09-13T11:23:20.183Z,3.30
2022-09-13T11:29:13.609Z,2.80
2022-09-13T11:35:15.144Z,4.70
2022-09-13T11:40:54.379Z,3.30
2022-09-13T11:46:18.331Z,3.10
2022-09-13T11:51:43.816Z,3.00
2022-09-13T11:57:04.555Z,3.20
2022-09-13T12:02:47.074Z,3.00
2022-09-13T12:08:43.441Z,3.50
2022-09-13T12:14:13.183Z,2.90
2022-09-13T12:19:25.963Z,3.10
2022-09-13T12:24:56.544Z,2.30
2022-09-13T12:30:07.497Z,2.60
2022-09-13T12:36:21.420Z,2.50
2022-09-13T12:42:36.012Z,2.80
2022-09-13T12:47:53.958Z,2.70
2022-09-13T12:53:39.612Z,2.90
2022-09-13T12:59:15.894Z,3.00
2022-09-13T13:04:53.185Z,2.70
2022-09-13T13:09:58.579Z,2.20
2022-09-13T13:15:49.266Z,2.60
2022-09-13T13:21:27.660Z,2.80
2022-09-13T13:27:21.497Z,2.90
2022-09-13T13:32:31.447Z,3.30
2022-09-13T13:38:54.519Z,2.70
2022-09-13T13:44:36.775Z,2.40
2022-09-13T13:49:43.773Z,2.70
2022-09-13T13:55:41.411Z,2.20
2022-09-13T14:01:02.532Z,2.30
2022-09-13T14:06:32.927Z,2.70
2022-09-13T14:12:07.881Z,2.20
2022-09-13T14:18:07.269Z,2.30
2022-09-13T14:23:57.303Z,2.20
2022-09-13T14:29:20.173Z,2.40
2022-09-13T14:34:56.084Z,2.00
2022-09-13T14:40:17.678Z,2.00
2022-09-13T14:45:44.569Z,2.20
2022-09-13T14:51:04.490Z,2.40
2022-09-13T14:57:03.685Z,2.40
2022-09-13T15:02:31.222Z,2.10
2022-09-13T15:08:42.640Z,2.50
2022-09-13T15:14:50.676Z,2.00
2022-09-13T15:20:24.759Z,2.60
2022-09-13T15:26:01.036Z,2.30
2022-09-13T15:31:46.460Z,2.30
2022-09-13T15:37:13.702Z,2.20
2022-09-13T15:42:18.797Z,1.90
2022-09-13T15:47:20.768Z,2.40
2022-09-13T15:52:29.051Z,2.00
2022-09-13T15:58:01.463Z,2.40
2022-09-13T16:03:14.712Z,2.10
2022-09-13T16:08:16.548Z,2.10
2022-09-13T16:13:24.703Z,2.90
2022-09-13T16:18:35.535Z,2.20
2022-09-13T16:23:43.242Z,2.90
2022-09-13T16:28:48.498Z,2.30
2022-09-13T16:33:54.955Z,2.30
2022-09-13T16:38:57.574Z,2.50
2022-09-13T16:44:05.159Z,2.30
2022-09-13T16:49:37.266Z,3.00
2022-09-13T16:55:18.224Z,3.20
2022-09-13T17:00:43.470Z,3.70
2022-09-13T17:06:13.183Z,5.00
2022-09-13T17:11:21.622Z,4.90
2022-09-13T17:16:29.007Z,4.80
2022-09-13T17:21:52.640Z,4.30
2022-09-13T17:27:01.644Z,3.50
2022-09-13T17:32:32.763Z,4.70
2022-09-13T17:38:03.602Z,3.40
2022-09-13T17:43:14.224Z,4.00
2022-09-13T17:48:21.764Z,3.50
2022-09-13T17:54:00.886Z,3.80
2022-09-13T17:59:16.506Z,5.30
2022-09-13T18:04:22.014Z,4.20
2022-09-13T18:09:24.830Z,3.70
2022-09-13T18:14:29.252Z,3.10
2022-09-13T18:19:45.911Z,4.30
2022-09-13T18:24:52.373Z,4.80
2022-09-13T18:29:54.440Z,4.10
2022-09-13T18:35:22.699Z,4.50
2022-09-13T18:40:41.913Z,4.40
2022-09-13T18:45:44.129Z,4.00
2022-09-13T18:50:50.122Z,3.70
2022-09-13T18:55:56.192Z,4.20
2022-09-13T19:01:06.136Z,4.70
2022-09-13T19:06:16.861Z,4.00
2022-09-13T19:11:45.200Z,4.90
2022-09-13T19:16:49.027Z,4.00
2022-09-13T19:21:51.625Z,4.90
2022-09-13T19:26:54.963Z,4.40
2022-09-13T19:32:03.859Z,4.40
2022-09-13T19:37:06.163Z,4.00
2022-09-13T19:42:29.145Z,3.50
2022-09-13T19:52:58.513Z,5.20
2022-09-13T19:58:13.199Z,3.80
2022-09-13T20:03:26.138Z,3.80
2022-09-13T20:08:28.668Z,3.80
2022-09-13T20:13:31.069Z,4.20
2022-09-13T20:18:36.009Z,3.40
2022-09-13T20:23:47.238Z,3.30
2022-09-13T20:29:14.544Z,3.50
2022-09-13T20:34:37.783Z,4.00
2022-09-13T20:39:49.003Z,4.20
2022-09-13T20:45:01.412Z,3.80
2022-09-13T20:50:15.441Z,2.90
2022-09-13T20:55:48.563Z,3.60
2022-09-13T21:01:48.934Z,3.30
2022-09-13T21:07:32.256Z,3.60
2022-09-13T21:13:26.921Z,3.20
2022-09-13T21:18:49.459Z,3.60
2022-09-13T21:24:32.320Z,3.50
2022-09-13T21:30:04.943Z,3.30
2022-09-13T21:35:22.859Z,3.10
2022-09-13T21:40:37.044Z,3.60
2022-09-13T21:46:38.362Z,3.30
2022-09-13T21:52:01.377Z,2.70
2022-09-13T21:58:12.710Z,3.70
2022-09-13T22:03:40.037Z,2.70
2022-09-13T22:10:08.152Z,2.60
2022-09-13T22:15:44.651Z,3.10
2022-09-13T22:21:27.793Z,3.10
2022-09-13T22:27:28.559Z,2.80
2022-09-13T22:32:45.174Z,3.40
2022-09-13T22:39:01.739Z,2.90
2022-09-13T22:44:10.087Z,2.80
2022-09-13T22:50:14.609Z,2.50
2022-09-13T22:56:50.422Z,2.90
2022-09-13T23:02:42.035Z,3.00
2022-09-13T23:08:47.638Z,2.80
2022-09-13T23:14:41.825Z,2.60
2022-09-13T23:20:58.587Z,2.60
2022-09-13T23:27:27.476Z,2.90
2022-09-13T23:34:00.300Z,2.70
2022-09-13T23:39:52.945Z,3.30
2022-09-13T23:46:33.320Z,2.70
2022-09-13T23:52:43.577Z,2.70
2022-09-13T23:57:57.100Z,2.50
